sensor_id;sensor_type;location;lat;lon;timestamp;P1;durP1;ratioP1;P2;durP2;ratioP2
73452;SDS011;61687;56.232;43.854;2022-07-06T00:01:41;10.23;;;3.90;;
73452;SDS011;61687;56.232;43.854;2022-07-06T00:04:07;6.77;;;3.67;;
73452;SDS011;61687;56.232;43.854;2022-07-06T00:06:33;8.50;;;3.60;;
73452;SDS011;61687;56.232;43.854;2022-07-06T00:08:59;6.05;;;3.75;;
73452;SDS011;61687;56.232;43.854;2022-07-06T00:11:25;7.00;;;4.03;;
73452;SDS011;61687;56.232;43.854;2022-07-06T00:13:51;6.60;;;3.90;;
73452;SDS011;61687;56.232;43.854;2022-07-06T00:16:17;6.85;;;4.05;;
73452;SDS011;61687;56.232;43.854;2022-07-06T00:18:44;6.82;;;3.88;;
73452;SDS011;61687;56.232;43.854;2022-07-06T00:21:10;8.32;;;3.85;;
73452;SDS011;61687;56.232;43.854;2022-07-06T00:23:36;6.00;;;3.57;;
73452;SDS011;61687;56.232;43.854;2022-07-06T00:26:02;6.22;;;3.78;;
73452;SDS011;61687;56.232;43.854;2022-07-06T00:28:28;6.82;;;4.50;;
73452;SDS011;61687;56.232;43.854;2022-07-06T00:30:54;6.68;;;4.32;;
73452;SDS011;61687;56.232;43.854;2022-07-06T00:33:21;6.88;;;4.43;;
73452;SDS011;61687;56.232;43.854;2022-07-06T00:35:47;6.43;;;4.00;;
73452;SDS011;61687;56.232;43.854;2022-07-06T00:38:13;7.15;;;3.20;;
73452;SDS011;61687;56.232;43.854;2022-07-06T00:40:39;9.30;;;3.92;;
73452;SDS011;61687;56.232;43.854;2022-07-06T00:43:05;5.68;;;3.90;;
73452;SDS011;61687;56.232;43.854;2022-07-06T00:45:35;7.40;;;3.87;;
73452;SDS011;61687;56.232;43.854;2022-07-06T00:48:01;6.45;;;4.03;;
73452;SDS011;61687;56.232;43.854;2022-07-06T00:50:28;6.18;;;3.55;;
73452;SDS011;61687;56.232;43.854;2022-07-06T00:52:55;6.28;;;4.47;;
73452;SDS011;61687;56.232;43.854;2022-07-06T00:55:28;11.60;;;4.13;;
73452;SDS011;61687;56.232;43.854;2022-07-06T00:57:55;7.55;;;4.18;;
73452;SDS011;61687;56.232;43.854;2022-07-06T01:00:23;11.93;;;4.63;;
73452;SDS011;61687;56.232;43.854;2022-07-06T01:02:51;8.18;;;4.18;;
73452;SDS011;61687;56.232;43.854;2022-07-06T01:05:18;6.40;;;4.45;;
73452;SDS011;61687;56.232;43.854;2022-07-06T01:07:45;8.27;;;3.87;;
73452;SDS011;61687;56.232;43.854;2022-07-06T01:10:13;6.57;;;4.40;;
73452;SDS011;61687;56.232;43.854;2022-07-06T01:12:41;6.35;;;4.38;;
73452;SDS011;61687;56.232;43.854;2022-07-06T01:15:10;8.57;;;4.32;;
73452;SDS011;61687;56.232;43.854;2022-07-06T01:17:41;11.40;;;4.68;;
73452;SDS011;61687;56.232;43.854;2022-07-06T01:20:18;8.57;;;4.47;;
73452;SDS011;61687;56.232;43.854;2022-07-06T01:22:45;7.30;;;4.47;;
73452;SDS011;61687;56.232;43.854;2022-07-06T01:25:12;12.38;;;4.82;;
73452;SDS011;61687;56.232;43.854;2022-07-06T01:27:39;8.73;;;4.20;;
73452;SDS011;61687;56.232;43.854;2022-07-06T01:30:09;8.73;;;4.35;;
73452;SDS011;61687;56.232;43.854;2022-07-06T01:32:37;8.37;;;3.93;;
73452;SDS011;61687;56.232;43.854;2022-07-06T01:35:07;7.57;;;4.40;;
73452;SDS011;61687;56.232;43.854;2022-07-06T01:37:35;7.20;;;4.15;;
73452;SDS011;61687;56.232;43.854;2022-07-06T01:40:03;9.75;;;4.30;;
73452;SDS011;61687;56.232;43.854;2022-07-06T01:42:30;9.40;;;4.50;;
73452;SDS011;61687;56.232;43.854;2022-07-06T01:44:55;8.00;;;4.80;;
73452;SDS011;61687;56.232;43.854;2022-07-06T01:47:21;11.40;;;4.55;;
73452;SDS011;61687;56.232;43.854;2022-07-06T01:49:50;7.53;;;4.25;;
73452;SDS011;61687;56.232;43.854;2022-07-06T01:52:16;8.25;;;4.57;;
73452;SDS011;61687;56.232;43.854;2022-07-06T01:54:42;8.20;;;4.40;;
73452;SDS011;61687;56.232;43.854;2022-07-06T01:57:07;10.25;;;4.35;;
73452;SDS011;61687;56.232;43.854;2022-07-06T01:59:33;12.20;;;4.50;;
73452;SDS011;61687;56.232;43.854;2022-07-06T02:01:59;7.60;;;4.40;;
73452;SDS011;61687;56.232;43.854;2022-07-06T02:04:25;7.30;;;3.67;;
73452;SDS011;61687;56.232;43.854;2022-07-06T02:06:52;8.02;;;4.35;;
73452;SDS011;61687;56.232;43.854;2022-07-06T02:09:17;9.05;;;4.07;;
73452;SDS011;61687;56.232;43.854;2022-07-06T02:11:43;11.33;;;4.03;;
73452;SDS011;61687;56.232;43.854;2022-07-06T02:14:09;7.22;;;4.28;;
73452;SDS011;61687;56.232;43.854;2022-07-06T02:16:38;9.35;;;4.28;;
73452;SDS011;61687;56.232;43.854;2022-07-06T02:19:03;11.63;;;4.20;;
73452;SDS011;61687;56.232;43.854;2022-07-06T02:21:29;9.70;;;3.97;;
73452;SDS011;61687;56.232;43.854;2022-07-06T02:23:55;8.90;;;3.70;;
73452;SDS011;61687;56.232;43.854;2022-07-06T02:26:22;15.07;;;3.92;;
73452;SDS011;61687;56.232;43.854;2022-07-06T02:28:49;8.63;;;3.90;;
73452;SDS011;61687;56.232;43.854;2022-07-06T02:31:15;7.85;;;3.75;;
73452;SDS011;61687;56.232;43.854;2022-07-06T02:33:43;8.95;;;4.10;;
73452;SDS011;61687;56.232;43.854;2022-07-06T02:36:10;7.47;;;3.80;;
73452;SDS011;61687;56.232;43.854;2022-07-06T02:38:36;7.10;;;3.45;;
73452;SDS011;61687;56.232;43.854;2022-07-06T02:41:02;8.47;;;3.63;;
73452;SDS011;61687;56.232;43.854;2022-07-06T02:43:28;8.68;;;3.65;;
73452;SDS011;61687;56.232;43.854;2022-07-06T02:45:54;9.10;;;4.32;;
73452;SDS011;61687;56.232;43.854;2022-07-06T02:48:21;9.48;;;3.90;;
73452;SDS011;61687;56.232;43.854;2022-07-06T02:50:49;6.63;;;3.80;;
73452;SDS011;61687;56.232;43.854;2022-07-06T02:53:17;7.80;;;3.95;;
73452;SDS011;61687;56.232;43.854;2022-07-06T02:55:44;6.65;;;3.65;;
73452;SDS011;61687;56.232;43.854;2022-07-06T02:58:10;8.57;;;3.40;;
73452;SDS011;61687;56.232;43.854;2022-07-06T03:00:36;8.82;;;4.00;;
73452;SDS011;61687;56.232;43.854;2022-07-06T03:03:02;5.73;;;3.87;;
73452;SDS011;61687;56.232;43.854;2022-07-06T03:05:29;7.65;;;4.10;;
73452;SDS011;61687;56.232;43.854;2022-07-06T03:07:55;7.43;;;4.40;;
73452;SDS011;61687;56.232;43.854;2022-07-06T03:10:21;9.32;;;3.80;;
73452;SDS011;61687;56.232;43.854;2022-07-06T03:12:47;6.53;;;3.40;;
73452;SDS011;61687;56.232;43.854;2022-07-06T03:15:13;6.90;;;4.00;;
73452;SDS011;61687;56.232;43.854;2022-07-06T03:17:41;6.60;;;3.95;;
73452;SDS011;61687;56.232;43.854;2022-07-06T03:20:08;6.93;;;4.00;;
73452;SDS011;61687;56.232;43.854;2022-07-06T03:22:34;7.50;;;4.10;;
73452;SDS011;61687;56.232;43.854;2022-07-06T03:25:01;8.18;;;3.83;;
73452;SDS011;61687;56.232;43.854;2022-07-06T03:27:28;6.57;;;4.22;;
73452;SDS011;61687;56.232;43.854;2022-07-06T03:29:54;6.68;;;3.35;;
73452;SDS011;61687;56.232;43.854;2022-07-06T03:32:20;6.17;;;3.43;;
73452;SDS011;61687;56.232;43.854;2022-07-06T03:34:46;7.47;;;3.70;;
73452;SDS011;61687;56.232;43.854;2022-07-06T03:37:12;10.43;;;3.90;;
73452;SDS011;61687;56.232;43.854;2022-07-06T03:39:40;6.00;;;3.80;;
73452;SDS011;61687;56.232;43.854;2022-07-06T03:42:07;6.13;;;3.50;;
73452;SDS011;61687;56.232;43.854;2022-07-06T03:44:33;5.87;;;3.97;;
73452;SDS011;61687;56.232;43.854;2022-07-06T03:47:00;10.30;;;4.13;;
73452;SDS011;61687;56.232;43.854;2022-07-06T03:49:26;9.07;;;4.10;;
73452;SDS011;61687;56.232;43.854;2022-07-06T03:51:54;6.60;;;4.30;;
73452;SDS011;61687;56.232;43.854;2022-07-06T03:54:21;9.18;;;3.97;;
73452;SDS011;61687;56.232;43.854;2022-07-06T03:56:48;8.70;;;4.33;;
73452;SDS011;61687;56.232;43.854;2022-07-06T03:59:15;7.90;;;4.28;;
73452;SDS011;61687;56.232;43.854;2022-07-06T04:01:41;8.30;;;3.85;;
73452;SDS011;61687;56.232;43.854;2022-07-06T04:04:10;7.53;;;4.38;;
73452;SDS011;61687;56.232;43.854;2022-07-06T04:06:41;6.55;;;3.83;;
73452;SDS011;61687;56.232;43.854;2022-07-06T04:09:07;8.77;;;4.00;;
73452;SDS011;61687;56.232;43.854;2022-07-06T04:11:35;11.55;;;4.15;;
73452;SDS011;61687;56.232;43.854;2022-07-06T04:14:02;11.40;;;4.13;;
73452;SDS011;61687;56.232;43.854;2022-07-06T04:16:27;8.23;;;4.50;;
73452;SDS011;61687;56.232;43.854;2022-07-06T04:18:53;9.07;;;4.20;;
73452;SDS011;61687;56.232;43.854;2022-07-06T04:21:19;8.98;;;4.28;;
73452;SDS011;61687;56.232;43.854;2022-07-06T04:23:45;13.90;;;4.65;;
73452;SDS011;61687;56.232;43.854;2022-07-06T04:26:12;9.03;;;4.20;;
73452;SDS011;61687;56.232;43.854;2022-07-06T04:28:38;9.75;;;4.55;;
73452;SDS011;61687;56.232;43.854;2022-07-06T04:31:03;10.10;;;4.28;;
73452;SDS011;61687;56.232;43.854;2022-07-06T04:33:30;7.72;;;4.28;;
73452;SDS011;61687;56.232;43.854;2022-07-06T04:35:57;7.17;;;4.10;;
73452;SDS011;61687;56.232;43.854;2022-07-06T04:38:27;10.80;;;4.47;;
73452;SDS011;61687;56.232;43.854;2022-07-06T04:40:57;6.68;;;4.10;;
73452;SDS011;61687;56.232;43.854;2022-07-06T04:43:23;7.43;;;4.38;;
73452;SDS011;61687;56.232;43.854;2022-07-06T04:45:49;8.10;;;4.90;;
73452;SDS011;61687;56.232;43.854;2022-07-06T04:48:15;10.17;;;4.63;;
73452;SDS011;61687;56.232;43.854;2022-07-06T04:50:41;10.85;;;4.55;;
73452;SDS011;61687;56.232;43.854;2022-07-06T04:53:13;11.68;;;5.15;;
73452;SDS011;61687;56.232;43.854;2022-07-06T04:55:40;9.97;;;4.63;;
73452;SDS011;61687;56.232;43.854;2022-07-06T04:58:06;7.93;;;4.50;;
73452;SDS011;61687;56.232;43.854;2022-07-06T05:00:32;11.07;;;4.80;;
73452;SDS011;61687;56.232;43.854;2022-07-06T05:02:58;11.17;;;4.87;;
73452;SDS011;61687;56.232;43.854;2022-07-06T05:05:26;8.73;;;4.63;;
73452;SDS011;61687;56.232;43.854;2022-07-06T05:07:52;6.75;;;4.32;;
73452;SDS011;61687;56.232;43.854;2022-07-06T05:10:19;9.60;;;4.53;;
73452;SDS011;61687;56.232;43.854;2022-07-06T05:12:48;9.90;;;4.63;;
73452;SDS011;61687;56.232;43.854;2022-07-06T05:15:15;8.40;;;4.67;;
73452;SDS011;61687;56.232;43.854;2022-07-06T05:17:41;12.38;;;4.47;;
73452;SDS011;61687;56.232;43.854;2022-07-06T05:20:07;13.07;;;5.05;;
73452;SDS011;61687;56.232;43.854;2022-07-06T05:22:37;10.18;;;4.43;;
73452;SDS011;61687;56.232;43.854;2022-07-06T05:25:03;7.70;;;4.23;;
73452;SDS011;61687;56.232;43.854;2022-07-06T05:27:29;10.98;;;4.47;;
73452;SDS011;61687;56.232;43.854;2022-07-06T05:29:55;13.25;;;6.28;;
73452;SDS011;61687;56.232;43.854;2022-07-06T05:32:21;11.98;;;4.88;;
73452;SDS011;61687;56.232;43.854;2022-07-06T05:34:47;9.00;;;5.72;;
73452;SDS011;61687;56.232;43.854;2022-07-06T05:37:14;6.73;;;4.40;;
73452;SDS011;61687;56.232;43.854;2022-07-06T05:39:41;10.85;;;4.30;;
73452;SDS011;61687;56.232;43.854;2022-07-06T05:42:10;8.80;;;4.82;;
73452;SDS011;61687;56.232;43.854;2022-07-06T05:44:36;7.90;;;3.83;;
73452;SDS011;61687;56.232;43.854;2022-07-06T05:47:02;9.27;;;4.60;;
73452;SDS011;61687;56.232;43.854;2022-07-06T05:49:47;6.47;;;4.35;;
73452;SDS011;61687;56.232;43.854;2022-07-06T05:52:31;9.85;;;5.85;;
73452;SDS011;61687;56.232;43.854;2022-07-06T05:54:57;12.10;;;5.40;;
73452;SDS011;61687;56.232;43.854;2022-07-06T05:57:24;8.07;;;4.93;;
73452;SDS011;61687;56.232;43.854;2022-07-06T05:59:50;8.50;;;3.97;;
73452;SDS011;61687;56.232;43.854;2022-07-06T06:02:15;10.07;;;4.50;;
73452;SDS011;61687;56.232;43.854;2022-07-06T06:04:43;8.27;;;4.95;;
73452;SDS011;61687;56.232;43.854;2022-07-06T06:07:09;8.97;;;4.30;;
73452;SDS011;61687;56.232;43.854;2022-07-06T06:09:35;7.80;;;4.82;;
73452;SDS011;61687;56.232;43.854;2022-07-06T06:12:01;11.27;;;4.20;;
73452;SDS011;61687;56.232;43.854;2022-07-06T06:14:28;12.18;;;4.47;;
73452;SDS011;61687;56.232;43.854;2022-07-06T06:16:54;8.80;;;4.20;;
73452;SDS011;61687;56.232;43.854;2022-07-06T06:19:20;9.38;;;4.63;;
73452;SDS011;61687;56.232;43.854;2022-07-06T06:21:46;10.77;;;4.60;;
73452;SDS011;61687;56.232;43.854;2022-07-06T06:24:12;10.90;;;4.30;;
73452;SDS011;61687;56.232;43.854;2022-07-06T06:26:37;7.35;;;4.43;;
73452;SDS011;61687;56.232;43.854;2022-07-06T06:29:03;11.98;;;4.60;;
73452;SDS011;61687;56.232;43.854;2022-07-06T06:31:29;7.13;;;4.80;;
73452;SDS011;61687;56.232;43.854;2022-07-06T06:33:57;9.70;;;5.05;;
73452;SDS011;61687;56.232;43.854;2022-07-06T06:36:23;12.10;;;4.65;;
73452;SDS011;61687;56.232;43.854;2022-07-06T06:38:49;8.17;;;4.90;;
73452;SDS011;61687;56.232;43.854;2022-07-06T06:41:15;12.38;;;6.07;;
73452;SDS011;61687;56.232;43.854;2022-07-06T06:43:41;9.80;;;4.40;;
73452;SDS011;61687;56.232;43.854;2022-07-06T06:46:27;9.57;;;4.50;;
73452;SDS011;61687;56.232;43.854;2022-07-06T06:48:52;9.25;;;4.80;;
73452;SDS011;61687;56.232;43.854;2022-07-06T06:51:18;10.03;;;4.80;;
73452;SDS011;61687;56.232;43.854;2022-07-06T06:53:46;11.48;;;4.47;;
73452;SDS011;61687;56.232;43.854;2022-07-06T06:56:12;6.43;;;4.63;;
73452;SDS011;61687;56.232;43.854;2022-07-06T06:58:38;13.48;;;4.70;;
73452;SDS011;61687;56.232;43.854;2022-07-06T07:01:04;9.00;;;4.70;;
73452;SDS011;61687;56.232;43.854;2022-07-06T07:03:30;8.02;;;4.30;;
73452;SDS011;61687;56.232;43.854;2022-07-06T07:05:56;10.00;;;4.55;;
73452;SDS011;61687;56.232;43.854;2022-07-06T07:08:22;9.10;;;4.22;;
73452;SDS011;61687;56.232;43.854;2022-07-06T07:10:48;9.95;;;4.32;;
73452;SDS011;61687;56.232;43.854;2022-07-06T07:13:14;10.87;;;4.97;;
73452;SDS011;61687;56.232;43.854;2022-07-06T07:15:40;5.93;;;4.20;;
73452;SDS011;61687;56.232;43.854;2022-07-06T07:18:06;11.93;;;4.40;;
73452;SDS011;61687;56.232;43.854;2022-07-06T07:20:32;9.20;;;4.70;;
73452;SDS011;61687;56.232;43.854;2022-07-06T07:22:59;8.75;;;4.30;;
73452;SDS011;61687;56.232;43.854;2022-07-06T07:25:25;7.90;;;4.90;;
73452;SDS011;61687;56.232;43.854;2022-07-06T07:27:52;10.18;;;5.30;;
73452;SDS011;61687;56.232;43.854;2022-07-06T07:30:17;10.67;;;4.67;;
73452;SDS011;61687;56.232;43.854;2022-07-06T07:32:43;8.40;;;5.15;;
73452;SDS011;61687;56.232;43.854;2022-07-06T07:35:09;9.70;;;5.55;;
73452;SDS011;61687;56.232;43.854;2022-07-06T07:37:36;11.93;;;6.65;;
73452;SDS011;61687;56.232;43.854;2022-07-06T07:40:02;11.25;;;5.85;;
73452;SDS011;61687;56.232;43.854;2022-07-06T07:42:29;10.67;;;5.93;;
73452;SDS011;61687;56.232;43.854;2022-07-06T07:44:55;10.75;;;6.53;;
73452;SDS011;61687;56.232;43.854;2022-07-06T07:47:21;8.73;;;5.60;;
73452;SDS011;61687;56.232;43.854;2022-07-06T07:49:47;9.53;;;6.47;;
73452;SDS011;61687;56.232;43.854;2022-07-06T07:52:13;8.85;;;6.82;;
73452;SDS011;61687;56.232;43.854;2022-07-06T07:54:39;11.52;;;6.57;;
73452;SDS011;61687;56.232;43.854;2022-07-06T07:57:05;8.67;;;6.33;;
73452;SDS011;61687;56.232;43.854;2022-07-06T07:59:31;8.80;;;6.55;;
73452;SDS011;61687;56.232;43.854;2022-07-06T08:01:56;12.00;;;6.68;;
73452;SDS011;61687;56.232;43.854;2022-07-06T08:04:22;11.23;;;7.38;;
73452;SDS011;61687;56.232;43.854;2022-07-06T08:06:48;11.07;;;7.63;;
73452;SDS011;61687;56.232;43.854;2022-07-06T08:09:14;10.80;;;7.93;;
73452;SDS011;61687;56.232;43.854;2022-07-06T08:11:42;11.27;;;7.50;;
73452;SDS011;61687;56.232;43.854;2022-07-06T08:14:08;10.20;;;7.37;;
73452;SDS011;61687;56.232;43.854;2022-07-06T08:16:33;13.00;;;7.97;;
73452;SDS011;61687;56.232;43.854;2022-07-06T08:18:59;13.45;;;7.57;;
73452;SDS011;61687;56.232;43.854;2022-07-06T08:21:25;9.87;;;7.00;;
73452;SDS011;61687;56.232;43.854;2022-07-06T08:23:52;12.18;;;7.97;;
73452;SDS011;61687;56.232;43.854;2022-07-06T08:26:20;13.65;;;6.70;;
73452;SDS011;61687;56.232;43.854;2022-07-06T08:28:46;12.10;;;7.00;;
73452;SDS011;61687;56.232;43.854;2022-07-06T08:31:12;9.97;;;7.20;;
73452;SDS011;61687;56.232;43.854;2022-07-06T08:33:38;9.77;;;6.95;;
73452;SDS011;61687;56.232;43.854;2022-07-06T08:36:03;12.83;;;7.30;;
73452;SDS011;61687;56.232;43.854;2022-07-06T08:38:30;10.15;;;6.90;;
73452;SDS011;61687;56.232;43.854;2022-07-06T08:40:55;11.02;;;7.13;;
73452;SDS011;61687;56.232;43.854;2022-07-06T08:43:22;15.70;;;7.22;;
73452;SDS011;61687;56.232;43.854;2022-07-06T08:45:48;11.20;;;7.00;;
73452;SDS011;61687;56.232;43.854;2022-07-06T08:48:16;11.27;;;7.07;;
73452;SDS011;61687;56.232;43.854;2022-07-06T08:50:43;13.05;;;7.38;;
73452;SDS011;61687;56.232;43.854;2022-07-06T08:53:09;13.75;;;7.15;;
73452;SDS011;61687;56.232;43.854;2022-07-06T08:55:35;12.50;;;7.17;;
73452;SDS011;61687;56.232;43.854;2022-07-06T08:58:01;10.37;;;6.73;;
73452;SDS011;61687;56.232;43.854;2022-07-06T09:00:30;10.15;;;6.93;;
73452;SDS011;61687;56.232;43.854;2022-07-06T09:02:57;10.25;;;7.13;;
73452;SDS011;61687;56.232;43.854;2022-07-06T09:05:24;11.13;;;7.18;;
73452;SDS011;61687;56.232;43.854;2022-07-06T09:07:51;9.63;;;7.20;;
73452;SDS011;61687;56.232;43.854;2022-07-06T09:10:18;9.85;;;7.47;;
73452;SDS011;61687;56.232;43.854;2022-07-06T09:12:47;10.60;;;7.60;;
73452;SDS011;61687;56.232;43.854;2022-07-06T09:15:13;11.43;;;7.05;;
73452;SDS011;61687;56.232;43.854;2022-07-06T09:17:40;9.82;;;7.60;;
73452;SDS011;61687;56.232;43.854;2022-07-06T09:20:08;9.70;;;7.10;;
73452;SDS011;61687;56.232;43.854;2022-07-06T09:22:36;13.80;;;7.47;;
73452;SDS011;61687;56.232;43.854;2022-07-06T09:25:09;11.00;;;6.78;;
73452;SDS011;61687;56.232;43.854;2022-07-06T09:27:38;13.45;;;7.53;;
73452;SDS011;61687;56.232;43.854;2022-07-06T09:30:05;10.32;;;8.18;;
73452;SDS011;61687;56.232;43.854;2022-07-06T09:32:37;10.37;;;7.20;;
73452;SDS011;61687;56.232;43.854;2022-07-06T09:35:05;11.23;;;7.47;;
73452;SDS011;61687;56.232;43.854;2022-07-06T09:37:31;12.63;;;7.00;;
73452;SDS011;61687;56.232;43.854;2022-07-06T09:39:57;11.63;;;7.40;;
73452;SDS011;61687;56.232;43.854;2022-07-06T09:42:26;12.70;;;7.80;;
73452;SDS011;61687;56.232;43.854;2022-07-06T09:44:52;10.43;;;7.47;;
73452;SDS011;61687;56.232;43.854;2022-07-06T09:47:18;10.07;;;7.10;;
73452;SDS011;61687;56.232;43.854;2022-07-06T09:49:45;10.20;;;7.35;;
73452;SDS011;61687;56.232;43.854;2022-07-06T09:52:13;9.77;;;7.30;;
73452;SDS011;61687;56.232;43.854;2022-07-06T09:54:39;11.27;;;7.93;;
73452;SDS011;61687;56.232;43.854;2022-07-06T09:57:06;10.30;;;7.50;;
73452;SDS011;61687;56.232;43.854;2022-07-06T09:59:33;9.82;;;6.80;;
73452;SDS011;61687;56.232;43.854;2022-07-06T10:02:01;9.57;;;6.32;;
73452;SDS011;61687;56.232;43.854;2022-07-06T10:04:31;11.97;;;7.20;;
73452;SDS011;61687;56.232;43.854;2022-07-06T10:06:58;12.90;;;7.43;;
73452;SDS011;61687;56.232;43.854;2022-07-06T10:09:26;11.13;;;7.57;;
73452;SDS011;61687;56.232;43.854;2022-07-06T10:11:56;10.90;;;7.43;;
73452;SDS011;61687;56.232;43.854;2022-07-06T10:14:24;11.25;;;7.05;;
73452;SDS011;61687;56.232;43.854;2022-07-06T10:16:52;10.90;;;7.23;;
73452;SDS011;61687;56.232;43.854;2022-07-06T10:19:20;12.35;;;6.90;;
73452;SDS011;61687;56.232;43.854;2022-07-06T10:21:47;9.85;;;7.20;;
73452;SDS011;61687;56.232;43.854;2022-07-06T10:24:13;8.00;;;6.50;;
73452;SDS011;61687;56.232;43.854;2022-07-06T10:26:40;11.43;;;7.22;;
73452;SDS011;61687;56.232;43.854;2022-07-06T10:29:07;14.17;;;7.20;;
73452;SDS011;61687;56.232;43.854;2022-07-06T10:31:33;9.32;;;7.18;;
73452;SDS011;61687;56.232;43.854;2022-07-06T10:34:03;10.90;;;7.63;;
73452;SDS011;61687;56.232;43.854;2022-07-06T10:36:32;9.43;;;7.53;;
73452;SDS011;61687;56.232;43.854;2022-07-06T10:39:03;9.05;;;7.28;;
73452;SDS011;61687;56.232;43.854;2022-07-06T10:41:48;10.67;;;7.80;;
73452;SDS011;61687;56.232;43.854;2022-07-06T10:44:18;10.35;;;7.20;;
73452;SDS011;61687;56.232;43.854;2022-07-06T10:46:52;8.95;;;7.22;;
73452;SDS011;61687;56.232;43.854;2022-07-06T10:49:23;8.60;;;7.13;;
73452;SDS011;61687;56.232;43.854;2022-07-06T10:51:50;8.87;;;6.57;;
73452;SDS011;61687;56.232;43.854;2022-07-06T10:54:18;8.02;;;6.70;;
73452;SDS011;61687;56.232;43.854;2022-07-06T10:56:46;9.85;;;7.15;;
73452;SDS011;61687;56.232;43.854;2022-07-06T11:04:36;8.33;;;7.03;;
73452;SDS011;61687;56.232;43.854;2022-07-06T11:07:11;9.30;;;7.40;;
73452;SDS011;61687;56.232;43.854;2022-07-06T11:09:41;8.52;;;7.50;;
73452;SDS011;61687;56.232;43.854;2022-07-06T11:12:19;14.93;;;9.48;;
73452;SDS011;61687;56.232;43.854;2022-07-06T11:14:46;10.55;;;7.63;;
73452;SDS011;61687;56.232;43.854;2022-07-06T11:17:14;7.80;;;6.40;;
73452;SDS011;61687;56.232;43.854;2022-07-06T11:22:16;9.18;;;8.02;;
73452;SDS011;61687;56.232;43.854;2022-07-06T11:24:44;8.43;;;6.97;;
73452;SDS011;61687;56.232;43.854;2022-07-06T11:27:10;12.40;;;7.32;;
73452;SDS011;61687;56.232;43.854;2022-07-06T11:29:36;9.03;;;7.80;;
73452;SDS011;61687;56.232;43.854;2022-07-06T11:32:04;10.57;;;7.57;;
73452;SDS011;61687;56.232;43.854;2022-07-06T11:34:35;10.48;;;7.30;;
73452;SDS011;61687;56.232;43.854;2022-07-06T11:37:10;10.48;;;7.65;;
73452;SDS011;61687;56.232;43.854;2022-07-06T11:39:38;10.77;;;7.40;;
73452;SDS011;61687;56.232;43.854;2022-07-06T11:42:06;9.10;;;7.45;;
73452;SDS011;61687;56.232;43.854;2022-07-06T11:44:33;9.60;;;7.90;;
73452;SDS011;61687;56.232;43.854;2022-07-06T11:47:00;9.90;;;7.63;;
73452;SDS011;61687;56.232;43.854;2022-07-06T11:49:31;10.80;;;7.25;;
73452;SDS011;61687;56.232;43.854;2022-07-06T11:51:58;9.23;;;7.60;;
73452;SDS011;61687;56.232;43.854;2022-07-06T11:54:24;9.20;;;8.20;;
73452;SDS011;61687;56.232;43.854;2022-07-06T11:56:55;8.77;;;7.63;;
73452;SDS011;61687;56.232;43.854;2022-07-06T11:59:28;9.10;;;7.30;;
73452;SDS011;61687;56.232;43.854;2022-07-06T12:04:33;8.90;;;7.60;;
73452;SDS011;61687;56.232;43.854;2022-07-06T12:07:01;8.65;;;7.75;;
73452;SDS011;61687;56.232;43.854;2022-07-06T12:09:29;10.82;;;7.30;;
73452;SDS011;61687;56.232;43.854;2022-07-06T12:11:56;12.43;;;8.07;;
73452;SDS011;61687;56.232;43.854;2022-07-06T12:14:23;11.48;;;7.07;;
73452;SDS011;61687;56.232;43.854;2022-07-06T12:16:49;8.83;;;7.70;;
73452;SDS011;61687;56.232;43.854;2022-07-06T12:19:15;15.18;;;7.85;;
73452;SDS011;61687;56.232;43.854;2022-07-06T12:21:42;8.50;;;6.82;;
73452;SDS011;61687;56.232;43.854;2022-07-06T12:26:46;10.30;;;6.97;;
73452;SDS011;61687;56.232;43.854;2022-07-06T12:29:12;10.63;;;7.10;;
73452;SDS011;61687;56.232;43.854;2022-07-06T12:31:40;8.73;;;7.13;;
73452;SDS011;61687;56.232;43.854;2022-07-06T12:34:18;8.90;;;7.95;;
73452;SDS011;61687;56.232;43.854;2022-07-06T12:36:46;7.90;;;7.10;;
73452;SDS011;61687;56.232;43.854;2022-07-06T12:39:14;13.63;;;7.20;;
73452;SDS011;61687;56.232;43.854;2022-07-06T12:41:52;12.35;;;7.10;;
73452;SDS011;61687;56.232;43.854;2022-07-06T12:44:26;8.30;;;7.25;;
73452;SDS011;61687;56.232;43.854;2022-07-06T12:47:08;10.20;;;7.38;;
73452;SDS011;61687;56.232;43.854;2022-07-06T12:49:37;9.75;;;7.00;;
73452;SDS011;61687;56.232;43.854;2022-07-06T12:59:45;12.43;;;7.10;;
73452;SDS011;61687;56.232;43.854;2022-07-06T13:02:25;14.45;;;7.63;;
73452;SDS011;61687;56.232;43.854;2022-07-06T13:07:36;12.15;;;8.02;;
73452;SDS011;61687;56.232;43.854;2022-07-06T13:10:03;12.32;;;8.05;;
73452;SDS011;61687;56.232;43.854;2022-07-06T13:12:32;11.93;;;7.60;;
73452;SDS011;61687;56.232;43.854;2022-07-06T13:14:58;11.60;;;8.05;;
73452;SDS011;61687;56.232;43.854;2022-07-06T13:17:24;10.97;;;8.10;;
73452;SDS011;61687;56.232;43.854;2022-07-06T13:19:50;10.60;;;7.95;;
73452;SDS011;61687;56.232;43.854;2022-07-06T13:22:16;13.60;;;7.90;;
73452;SDS011;61687;56.232;43.854;2022-07-06T13:24:42;10.80;;;8.17;;
73452;SDS011;61687;56.232;43.854;2022-07-06T13:27:08;12.10;;;7.97;;
73452;SDS011;61687;56.232;43.854;2022-07-06T13:29:34;11.00;;;8.55;;
73452;SDS011;61687;56.232;43.854;2022-07-06T13:32:00;14.10;;;8.07;;
73452;SDS011;61687;56.232;43.854;2022-07-06T13:34:27;11.18;;;8.73;;
73452;SDS011;61687;56.232;43.854;2022-07-06T13:36:53;13.80;;;7.97;;
73452;SDS011;61687;56.232;43.854;2022-07-06T13:39:19;12.02;;;8.38;;
73452;SDS011;61687;56.232;43.854;2022-07-06T13:41:45;13.57;;;8.50;;
73452;SDS011;61687;56.232;43.854;2022-07-06T13:44:11;13.50;;;8.35;;
73452;SDS011;61687;56.232;43.854;2022-07-06T13:46:37;9.38;;;7.88;;
73452;SDS011;61687;56.232;43.854;2022-07-06T13:49:08;9.93;;;8.00;;
73452;SDS011;61687;56.232;43.854;2022-07-06T13:51:34;11.30;;;7.45;;
73452;SDS011;61687;56.232;43.854;2022-07-06T13:54:00;10.85;;;8.10;;
73452;SDS011;61687;56.232;43.854;2022-07-06T13:56:27;10.00;;;8.20;;
73452;SDS011;61687;56.232;43.854;2022-07-06T13:58:53;12.90;;;8.55;;
73452;SDS011;61687;56.232;43.854;2022-07-06T14:01:19;12.03;;;7.60;;
73452;SDS011;61687;56.232;43.854;2022-07-06T14:03:45;12.75;;;8.65;;
73452;SDS011;61687;56.232;43.854;2022-07-06T14:06:11;15.32;;;8.38;;
73452;SDS011;61687;56.232;43.854;2022-07-06T14:08:38;13.13;;;7.85;;
73452;SDS011;61687;56.232;43.854;2022-07-06T14:11:05;13.67;;;8.27;;
73452;SDS011;61687;56.232;43.854;2022-07-06T14:13:32;8.75;;;7.85;;
73452;SDS011;61687;56.232;43.854;2022-07-06T14:15:59;13.30;;;7.85;;
73452;SDS011;61687;56.232;43.854;2022-07-06T14:18:25;12.23;;;8.00;;
73452;SDS011;61687;56.232;43.854;2022-07-06T14:20:52;16.13;;;7.90;;
73452;SDS011;61687;56.232;43.854;2022-07-06T14:23:21;11.88;;;7.45;;
73452;SDS011;61687;56.232;43.854;2022-07-06T14:25:48;11.43;;;7.90;;
73452;SDS011;61687;56.232;43.854;2022-07-06T14:28:14;12.68;;;7.90;;
73452;SDS011;61687;56.232;43.854;2022-07-06T14:30:42;12.63;;;7.78;;
73452;SDS011;61687;56.232;43.854;2022-07-06T14:33:10;19.23;;;8.33;;
73452;SDS011;61687;56.232;43.854;2022-07-06T14:35:42;10.63;;;7.88;;
73452;SDS011;61687;56.232;43.854;2022-07-06T14:38:09;17.00;;;9.30;;
73452;SDS011;61687;56.232;43.854;2022-07-06T14:40:35;15.23;;;8.35;;
73452;SDS011;61687;56.232;43.854;2022-07-06T14:43:02;13.13;;;8.20;;
73452;SDS011;61687;56.232;43.854;2022-07-06T14:45:29;14.20;;;8.23;;
73452;SDS011;61687;56.232;43.854;2022-07-06T14:47:55;13.82;;;7.70;;
73452;SDS011;61687;56.232;43.854;2022-07-06T14:50:21;15.15;;;8.38;;
73452;SDS011;61687;56.232;43.854;2022-07-06T14:52:51;12.23;;;8.55;;